createdAt,value
2023-07-24T00:01:26.690Z,99560.69
2023-07-24T00:03:53.228Z,99562.91
2023-07-24T00:06:19.523Z,99557.13
2023-07-24T00:08:45.804Z,99552.72
2023-07-24T00:11:12.089Z,99547.31
2023-07-24T00:13:38.381Z,99556.91
2023-07-24T00:16:10.808Z,99549.47
2023-07-24T00:18:37.160Z,99547.47
2023-07-24T00:21:03.469Z,99550.34
2023-07-24T00:23:29.911Z,99551.88
2023-07-24T00:25:56.214Z,99540.88
2023-07-24T00:28:22.497Z,99541.44
2023-07-24T00:30:48.864Z,99535.91
2023-07-24T00:33:15.279Z,99535.09
2023-07-24T00:35:41.564Z,99529.97
2023-07-24T00:38:07.829Z,99533.44
2023-07-24T00:40:34.147Z,99537.75
2023-07-24T00:43:00.414Z,99536.44
2023-07-24T00:45:26.784Z,99534.03
2023-07-24T00:47:53.067Z,99530.03
2023-07-24T00:50:19.953Z,99532.28
2023-07-24T00:52:46.449Z,99529.63
2023-07-24T00:55:13.641Z,99526.94
2023-07-24T00:57:40.837Z,99526.19
2023-07-24T01:00:07.785Z,99524.47
2023-07-24T01:02:34.129Z,99525.25
2023-07-24T01:05:00.561Z,99520.91
2023-07-24T01:07:26.909Z,99526.44
2023-07-24T01:09:53.230Z,99516.69
2023-07-24T01:12:32.549Z,99519.13
2023-07-24T01:15:03.910Z,99511.44
2023-07-24T01:17:31.920Z,99512.47
2023-07-24T01:19:59.758Z,99505.31
2023-07-24T01:22:29.028Z,99507.28
2023-07-24T01:24:55.304Z,99509.59
2023-07-24T01:27:24.413Z,99507.16
2023-07-24T01:29:50.744Z,99493.84
2023-07-24T01:32:17.219Z,99489.19
2023-07-24T01:34:43.507Z,99485.97
2023-07-24T01:37:10.521Z,99490.63
2023-07-24T01:39:37.281Z,99483.38
2023-07-24T01:42:03.979Z,99486.56
2023-07-24T01:44:30.841Z,99495.69
2023-07-24T01:46:57.191Z,99484.53
2023-07-24T01:49:23.529Z,99487.25
2023-07-24T01:51:49.824Z,99492.94
2023-07-24T01:54:16.128Z,99490.78
2023-07-24T01:56:42.814Z,99489.34
2023-07-24T01:59:09.084Z,99493.19
2023-07-24T02:01:35.424Z,99493.53
2023-07-24T02:04:02.222Z,99485.31
2023-07-24T02:06:28.816Z,99485.69
2023-07-24T02:08:55.370Z,99481.72
2023-07-24T02:11:21.647Z,99484.03
2023-07-24T02:13:48.116Z,99470.16
2023-07-24T02:16:14.469Z,99473.19
2023-07-24T02:21:18.202Z,99476.09
2023-07-24T02:23:44.480Z,99474.94
2023-07-24T02:26:10.755Z,99471.03
2023-07-24T02:28:37.062Z,99466.00
2023-07-24T02:31:03.347Z,99466.78
2023-07-24T02:33:29.632Z,99457.53
2023-07-24T02:35:55.928Z,99455.16
2023-07-24T02:38:22.261Z,99461.78
2023-07-24T02:40:48.626Z,99452.72
2023-07-24T02:43:14.908Z,99452.78
2023-07-24T02:45:41.251Z,99451.56
2023-07-24T02:48:07.673Z,99446.34
2023-07-24T02:50:34.105Z,99447.97
2023-07-24T02:53:00.541Z,99442.88
2023-07-24T02:55:26.817Z,99447.19
2023-07-24T02:57:54.564Z,99446.34
2023-07-24T03:02:47.313Z,99444.84
2023-07-24T03:05:13.659Z,99443.22
2023-07-24T03:07:39.942Z,99443.66
2023-07-24T03:10:06.502Z,99440.31
2023-07-24T03:12:32.771Z,99446.63
2023-07-24T03:14:59.091Z,99433.56
2023-07-24T03:17:25.440Z,99433.25
2023-07-24T03:19:51.781Z,99433.31
2023-07-24T03:22:18.077Z,99425.59
2023-07-24T03:24:44.387Z,99432.09
2023-07-24T03:27:10.660Z,99425.47
2023-07-24T03:29:36.953Z,99423.97
2023-07-24T03:32:03.335Z,99417.78
2023-07-24T03:34:29.646Z,99412.22
2023-07-24T03:36:55.919Z,99405.94
2023-07-24T03:39:22.246Z,99408.59
2023-07-24T03:41:48.531Z,99409.06
2023-07-24T03:44:14.824Z,99412.13
2023-07-24T03:46:41.142Z,99411.34
2023-07-24T03:49:07.459Z,99404.94
2023-07-24T03:51:33.755Z,99400.72
2023-07-24T03:54:00.049Z,99394.94
2023-07-24T03:56:26.406Z,99393.78
2023-07-24T03:58:53.175Z,99393.78
2023-07-24T04:01:19.668Z,99380.91
2023-07-24T04:03:46.143Z,99380.16
2023-07-24T04:06:12.450Z,99373.97
2023-07-24T04:08:38.739Z,99368.78
2023-07-24T04:11:05.057Z,99366.56
2023-07-24T04:13:31.335Z,99364.28
2023-07-24T04:15:57.615Z,99356.03
2023-07-24T04:18:23.903Z,99349.09
2023-07-24T04:20:50.166Z,99338.44
2023-07-24T04:23:16.488Z,99344.78
2023-07-24T04:25:42.777Z,99332.34
2023-07-24T04:28:09.036Z,99324.56
2023-07-24T04:30:35.331Z,99319.19
2023-07-24T04:33:01.658Z,99312.38
2023-07-24T04:35:28.054Z,99309.28
2023-07-24T04:37:54.355Z,99311.41
2023-07-24T04:40:20.643Z,99315.84
2023-07-24T04:42:46.922Z,99302.63
2023-07-24T04:45:13.219Z,99303.50
2023-07-24T04:47:39.503Z,99317.19
2023-07-24T04:50:06.205Z,99328.06
2023-07-24T04:52:32.545Z,99326.00
2023-07-24T04:54:58.847Z,99325.13
2023-07-24T04:57:25.127Z,99314.38
2023-07-24T04:59:51.428Z,99311.97
2023-07-24T05:02:17.706Z,99316.69
2023-07-24T05:04:44.018Z,99309.72
2023-07-24T05:07:10.280Z,99308.97
2023-07-24T05:09:36.597Z,99318.91
2023-07-24T05:12:02.953Z,99305.50
2023-07-24T05:14:29.219Z,99298.53
2023-07-24T05:16:55.559Z,99304.78
2023-07-24T05:19:21.910Z,99301.69
2023-07-24T05:21:48.214Z,99308.22
2023-07-24T05:24:14.594Z,99312.75
2023-07-24T05:26:40.933Z,99309.28
2023-07-24T05:29:07.230Z,99316.38
2023-07-24T05:31:35.002Z,99326.66
2023-07-24T05:34:01.333Z,99347.69
2023-07-24T05:36:28.142Z,99323.25
2023-07-24T05:38:54.696Z,99319.19
2023-07-24T05:41:20.940Z,99313.59
2023-07-24T05:43:47.189Z,99299.75
2023-07-24T05:48:27.959Z,99318.03
2023-07-24T05:50:54.213Z,99317.97
2023-07-24T05:53:20.508Z,99316.50
2023-07-24T05:55:46.794Z,99311.88
2023-07-24T05:58:13.084Z,99321.47
2023-07-24T06:00:39.844Z,99323.41
2023-07-24T06:03:08.342Z,99321.94
2023-07-24T06:05:35.061Z,99328.53
2023-07-24T06:08:01.383Z,99329.16
2023-07-24T06:10:27.700Z,99336.22
2023-07-24T06:12:54.025Z,99333.34
2023-07-24T06:15:20.376Z,99324.69
2023-07-24T06:17:46.706Z,99330.28
2023-07-24T06:20:13.029Z,99337.34
2023-07-24T06:22:39.333Z,99337.97
2023-07-24T06:25:05.904Z,99335.66
2023-07-24T06:27:32.173Z,99336.94
2023-07-24T06:30:09.258Z,99339.66
2023-07-24T06:32:41.050Z,99341.25
2023-07-24T06:35:07.555Z,99339.78
2023-07-24T06:37:33.867Z,99331.22
2023-07-24T06:40:00.165Z,99335.56
2023-07-24T06:42:26.509Z,99334.06
2023-07-24T06:44:52.788Z,99340.63
2023-07-24T06:47:19.231Z,99334.75
2023-07-24T06:49:45.518Z,99325.81
2023-07-24T06:52:11.792Z,99322.06
2023-07-24T06:54:38.076Z,99324.59
2023-07-24T06:57:04.449Z,99331.22
2023-07-24T06:59:30.822Z,99333.34
2023-07-24T07:01:57.106Z,99336.31
2023-07-24T07:04:23.412Z,99344.31
2023-07-24T07:06:50.055Z,99332.63
2023-07-24T07:09:16.530Z,99334.47
2023-07-24T07:11:42.842Z,99326.66
2023-07-24T07:14:09.110Z,99331.63
2023-07-24T07:16:35.655Z,99334.91
2023-07-24T07:19:01.969Z,99335.50
2023-07-24T07:21:28.294Z,99330.59
2023-07-24T07:23:54.622Z,99330.00
2023-07-24T07:26:20.956Z,99327.06
2023-07-24T07:28:47.233Z,99341.09
2023-07-24T07:31:13.573Z,99328.31
2023-07-24T07:33:39.929Z,99323.38
2023-07-24T07:36:06.235Z,99329.66
2023-07-24T07:38:32.867Z,99337.81
2023-07-24T07:40:59.180Z,99334.63
2023-07-24T07:43:25.476Z,99334.31
2023-07-24T07:45:51.769Z,99334.94
2023-07-24T07:48:18.040Z,99343.03
2023-07-24T07:50:45.213Z,99334.38
2023-07-24T07:53:11.501Z,99335.22
2023-07-24T07:55:37.818Z,99327.81
2023-07-24T07:58:04.106Z,99325.75
2023-07-24T08:00:30.403Z,99330.38
2023-07-24T08:02:56.755Z,99335.69
2023-07-24T08:05:23.100Z,99329.47
2023-07-24T08:07:49.356Z,99330.28
2023-07-24T08:10:15.701Z,99337.41
2023-07-24T08:12:41.982Z,99337.94
2023-07-24T08:15:08.637Z,99334.56
2023-07-24T08:17:34.942Z,99337.91
2023-07-24T08:20:01.279Z,99327.03
2023-07-24T08:22:27.576Z,99315.25
2023-07-24T08:24:56.856Z,99308.56
2023-07-24T08:27:23.632Z,99316.03
2023-07-24T08:29:53.033Z,99310.56
2023-07-24T08:32:19.597Z,99316.47
2023-07-24T08:34:45.949Z,99305.81
2023-07-24T08:37:12.393Z,99311.72
2023-07-24T08:39:38.702Z,99308.22
2023-07-24T08:42:11.695Z,99297.94
2023-07-24T08:44:38.238Z,99300.31
2023-07-24T08:47:04.812Z,99292.84
2023-07-24T08:49:31.388Z,99297.13
2023-07-24T08:52:01.289Z,99300.22
2023-07-24T08:54:28.257Z,99310.81
2023-07-24T08:56:54.542Z,99300.25
2023-07-24T08:59:20.826Z,99299.09
2023-07-24T09:01:47.087Z,99293.22
2023-07-24T09:04:13.400Z,99290.47
2023-07-24T09:06:39.714Z,99293.94
2023-07-24T09:09:15.841Z,99291.97
2023-07-24T09:11:49.985Z,99288.84
2023-07-24T09:14:25.950Z,99284.97
2023-07-24T09:17:08.312Z,99284.16
2023-07-24T09:19:35.219Z,99278.59
2023-07-24T09:22:11.680Z,99288.47
2023-07-24T09:24:38.008Z,99288.09
2023-07-24T09:27:05.943Z,99286.94
2023-07-24T09:29:33.088Z,99283.66
2023-07-24T09:32:02.374Z,99271.75
2023-07-24T09:34:28.674Z,99282.09
2023-07-24T09:36:54.989Z,99282.13
2023-07-24T09:39:30.023Z,99275.88
2023-07-24T09:42:03.439Z,99273.47
2023-07-24T09:44:31.204Z,99278.16
2023-07-24T09:49:26.961Z,99280.91
2023-07-24T09:51:55.010Z,99270.53
2023-07-24T09:54:26.723Z,99266.03
2023-07-24T09:57:00.612Z,99261.56
2023-07-24T09:59:37.288Z,99282.19
2023-07-24T10:02:04.235Z,99282.16
2023-07-24T10:04:30.701Z,99273.44
2023-07-24T10:06:57.170Z,99264.28
2023-07-24T10:09:23.478Z,99261.47
2023-07-24T10:11:49.760Z,99262.63
2023-07-24T10:14:16.720Z,99255.91
2023-07-24T10:16:43.058Z,99266.16
2023-07-24T10:19:15.775Z,99265.19
2023-07-24T10:21:45.823Z,99261.84
2023-07-24T10:24:15.351Z,99255.66
2023-07-24T10:26:43.611Z,99265.50
2023-07-24T10:29:11.078Z,99260.44
2023-07-24T10:31:39.177Z,99261.59
2023-07-24T10:34:06.606Z,99260.41
2023-07-24T10:36:36.452Z,99259.28
2023-07-24T10:39:02.808Z,99256.13
2023-07-24T10:41:35.686Z,99252.22
2023-07-24T10:44:02.036Z,99245.78
2023-07-24T10:46:36.673Z,99250.44
2023-07-24T10:49:03.002Z,99257.69
2023-07-24T10:51:30.558Z,99252.72
2023-07-24T10:53:56.976Z,99253.84
2023-07-24T10:56:23.281Z,99249.63
2023-07-24T10:58:49.569Z,99257.28
2023-07-24T11:01:15.884Z,99258.25
2023-07-24T11:03:42.868Z,99261.88
2023-07-24T11:06:13.452Z,99255.09
2023-07-24T11:08:39.975Z,99256.16
2023-07-24T11:11:06.237Z,99257.34
2023-07-24T11:13:32.585Z,99262.78
2023-07-24T11:16:04.491Z,99260.78
2023-07-24T11:18:40.697Z,99262.03
2023-07-24T11:21:14.806Z,99260.09
2023-07-24T11:23:50.806Z,99256.97
2023-07-24T11:26:19.346Z,99268.72
2023-07-24T11:28:45.696Z,99266.31
2023-07-24T11:31:12.025Z,99261.88
2023-07-24T11:33:38.800Z,99267.69
2023-07-24T11:36:05.549Z,99262.34
2023-07-24T11:38:31.956Z,99267.69
2023-07-24T11:40:58.355Z,99268.47
2023-07-24T11:43:25.305Z,99265.50
2023-07-24T11:45:52.535Z,99264.81
2023-07-24T11:48:19.530Z,99267.25
2023-07-24T11:50:46.815Z,99266.41
2023-07-24T11:53:19.983Z,99271.53
2023-07-24T11:55:46.271Z,99268.78
2023-07-24T11:58:15.273Z,99264.03
2023-07-24T12:00:41.564Z,99253.81
2023-07-24T12:03:08.240Z,99258.50
2023-07-24T12:05:40.666Z,99255.00
2023-07-24T12:08:07.013Z,99244.22
2023-07-24T12:10:36.350Z,99243.44
2023-07-24T12:13:02.642Z,99225.88
2023-07-24T12:15:29.054Z,99226.88
2023-07-24T12:17:55.534Z,99220.94
2023-07-24T12:20:21.883Z,99231.84
2023-07-24T12:22:48.184Z,99222.69
2023-07-24T12:25:14.496Z,99212.69
2023-07-24T12:27:40.812Z,99212.00
2023-07-24T12:30:07.331Z,99216.25
2023-07-24T12:32:33.775Z,99197.56
2023-07-24T12:35:00.130Z,99202.84
2023-07-24T12:37:26.435Z,99214.97
2023-07-24T12:39:52.757Z,99211.91
2023-07-24T12:42:19.082Z,99206.44
2023-07-24T12:44:45.412Z,99208.03
2023-07-24T12:47:12.551Z,99210.84
2023-07-24T12:49:39.034Z,99208.50
2023-07-24T12:52:05.478Z,99217.56
2023-07-24T12:54:46.362Z,99223.84
2023-07-24T12:57:18.769Z,99217.81
2023-07-24T12:59:45.095Z,99235.78
2023-07-24T13:02:11.392Z,99235.31
2023-07-24T13:04:37.742Z,99244.66
2023-07-24T13:07:04.097Z,99246.13
2023-07-24T13:09:30.370Z,99243.19
2023-07-24T13:11:56.654Z,99235.53
2023-07-24T13:14:22.932Z,99244.88
2023-07-24T13:16:49.250Z,99242.53
2023-07-24T13:19:15.560Z,99243.25
2023-07-24T13:21:41.866Z,99252.63
2023-07-24T13:24:08.167Z,99244.41
2023-07-24T13:26:34.486Z,99247.66
2023-07-24T13:29:00.794Z,99256.81
2023-07-24T13:31:27.096Z,99260.13
2023-07-24T13:33:53.356Z,99267.56
2023-07-24T13:36:19.656Z,99268.38
2023-07-24T13:38:45.935Z,99254.09
2023-07-24T13:41:12.233Z,99254.97
2023-07-24T13:43:38.555Z,99250.34
2023-07-24T13:46:04.851Z,99241.41
2023-07-24T13:48:31.314Z,99231.53
2023-07-24T13:50:57.711Z,99223.69
2023-07-24T13:53:23.998Z,99222.63
2023-07-24T13:55:50.286Z,99221.88
2023-07-24T13:58:16.559Z,99199.00
2023-07-24T14:00:42.864Z,99189.97
2023-07-24T14:03:09.257Z,99160.00
2023-07-24T14:05:35.814Z,99139.53
2023-07-24T14:08:02.103Z,99101.78
2023-07-24T14:10:28.425Z,99056.06
2023-07-24T14:12:54.721Z,98980.38
2023-07-24T14:15:20.983Z,99005.66
2023-07-24T14:17:47.335Z,99028.13
2023-07-24T14:20:13.650Z,99059.25
2023-07-24T14:22:39.929Z,99067.88
2023-07-24T14:25:06.739Z,99072.53
2023-07-24T14:27:33.216Z,99085.81
2023-07-24T14:29:59.495Z,99093.88
2023-07-24T14:32:25.817Z,99093.97
2023-07-24T14:34:52.448Z,99098.69
2023-07-24T14:37:19.134Z,99101.09
2023-07-24T14:39:45.427Z,99103.09
2023-07-24T14:42:12.007Z,99101.84
2023-07-24T14:44:38.280Z,99092.97
2023-07-24T14:47:04.729Z,99084.38
2023-07-24T14:49:31.033Z,99100.56
2023-07-24T14:51:57.320Z,99098.31
2023-07-24T14:54:23.656Z,99095.94
2023-07-24T14:56:57.396Z,99089.22
2023-07-24T14:59:28.149Z,99082.16
2023-07-24T15:01:54.480Z,99084.53
2023-07-24T15:04:20.814Z,99098.56
2023-07-24T15:06:47.103Z,99098.19
2023-07-24T15:09:13.380Z,99095.41
2023-07-24T15:11:39.684Z,99099.91
2023-07-24T15:14:06.017Z,99106.00
2023-07-24T15:16:32.371Z,99101.50
2023-07-24T15:18:58.720Z,99104.91
2023-07-24T15:21:26.382Z,99100.81
2023-07-24T15:23:52.693Z,99091.53
2023-07-24T15:26:19.180Z,99090.13
2023-07-24T15:28:45.494Z,99074.16
2023-07-24T15:31:11.825Z,99086.75
2023-07-24T15:33:38.148Z,99077.47
2023-07-24T15:38:30.759Z,99093.47
2023-07-24T15:40:57.068Z,99088.38
2023-07-24T15:43:23.346Z,99069.72
2023-07-24T15:45:49.899Z,99080.28
2023-07-24T15:48:20.376Z,99089.47
2023-07-24T15:50:51.949Z,99097.41
2023-07-24T15:53:18.293Z,99101.72
2023-07-24T15:55:44.562Z,99102.91
2023-07-24T15:58:10.834Z,99106.44
2023-07-24T16:00:37.165Z,99117.78
2023-07-24T16:03:03.575Z,99121.16
2023-07-24T16:05:29.920Z,99119.34
2023-07-24T16:07:56.200Z,99125.88
2023-07-24T16:10:22.523Z,99120.31
2023-07-24T16:12:48.859Z,99117.66
2023-07-24T16:15:15.181Z,99114.53
2023-07-24T16:18:05.594Z,99124.59
2023-07-24T16:20:28.618Z,99127.00
2023-07-24T16:22:55.000Z,99130.13
2023-07-24T16:25:21.313Z,99135.19
2023-07-24T16:27:47.605Z,99125.34
2023-07-24T16:32:49.263Z,99127.28
2023-07-24T16:35:16.054Z,99125.72
2023-07-24T16:37:42.337Z,99127.78
2023-07-24T16:40:09.407Z,99131.31
2023-07-24T16:42:35.732Z,99128.56
2023-07-24T16:45:02.049Z,99120.69
2023-07-24T16:47:28.378Z,99125.00
2023-07-24T16:49:54.793Z,99129.34
2023-07-24T16:52:21.113Z,99132.09
2023-07-24T16:54:47.419Z,99121.47
2023-07-24T16:57:13.701Z,99132.91
2023-07-24T16:59:40.015Z,99115.13
2023-07-24T17:02:06.509Z,99110.78
2023-07-24T17:04:32.786Z,99119.78
2023-07-24T17:06:59.078Z,99107.91
2023-07-24T17:09:25.364Z,99115.28
2023-07-24T17:11:51.632Z,99124.31
2023-07-24T17:14:17.972Z,99124.63
2023-07-24T17:16:44.322Z,99125.75
2023-07-24T17:19:10.622Z,99128.91
2023-07-24T17:21:37.141Z,99129.03
2023-07-24T17:24:04.139Z,99143.22
2023-07-24T17:26:30.506Z,99135.81
2023-07-24T17:28:56.790Z,99143.38
2023-07-24T17:31:23.095Z,99145.88
2023-07-24T17:33:49.353Z,99154.53
2023-07-24T17:36:15.609Z,99153.72
2023-07-24T17:38:41.902Z,99160.00
2023-07-24T17:41:08.173Z,99163.91
2023-07-24T17:43:34.456Z,99157.47
2023-07-24T17:46:00.778Z,99188.72
2023-07-24T17:48:27.083Z,99182.75
2023-07-24T17:50:53.381Z,99200.06
2023-07-24T17:53:19.669Z,99189.41
2023-07-24T17:55:46.040Z,99195.56
2023-07-24T17:58:12.322Z,99181.00
2023-07-24T18:00:38.648Z,99202.53
2023-07-24T18:03:04.947Z,99204.22
2023-07-24T18:05:31.377Z,99208.81
2023-07-24T18:07:57.654Z,99202.41
2023-07-24T18:10:24.003Z,99200.19
2023-07-24T18:12:50.400Z,99190.72
2023-07-24T18:15:16.691Z,99199.97
2023-07-24T18:17:43.450Z,99209.28
2023-07-24T18:20:09.864Z,99214.00
2023-07-24T18:22:36.144Z,99209.34
2023-07-24T18:25:02.392Z,99216.34
2023-07-24T18:27:28.705Z,99223.34
2023-07-24T18:29:55.013Z,99223.84
2023-07-24T18:32:21.423Z,99224.31
2023-07-24T18:34:47.762Z,99227.84
2023-07-24T18:37:14.088Z,99232.34
2023-07-24T18:39:40.360Z,99240.16
2023-07-24T18:42:06.728Z,99247.41
2023-07-24T18:44:34.615Z,99245.94
2023-07-24T18:47:00.921Z,99256.41
2023-07-24T18:49:27.200Z,99253.63
2023-07-24T18:51:53.496Z,99255.13
2023-07-24T18:54:19.958Z,99260.97
2023-07-24T18:56:46.260Z,99255.44
2023-07-24T18:59:12.559Z,99264.31
2023-07-24T19:01:38.940Z,99265.41
2023-07-24T19:04:05.278Z,99273.28
2023-07-24T19:06:31.626Z,99275.44
2023-07-24T19:08:57.969Z,99283.22
2023-07-24T19:11:24.263Z,99298.31
2023-07-24T19:13:50.575Z,99301.63
2023-07-24T19:16:16.858Z,99295.81
2023-07-24T19:18:43.177Z,99304.53
2023-07-24T19:21:09.465Z,99302.78
2023-07-24T19:23:35.799Z,99305.81
2023-07-24T19:26:02.213Z,99304.53
2023-07-24T19:28:28.511Z,99309.75
2023-07-24T19:30:55.339Z,99322.47
2023-07-24T19:33:21.636Z,99320.38
2023-07-24T19:35:47.914Z,99329.34
2023-07-24T19:38:14.219Z,99337.75
2023-07-24T19:40:40.614Z,99335.72
2023-07-24T19:43:06.905Z,99337.59
2023-07-24T19:45:37.868Z,99343.94
2023-07-24T19:48:04.283Z,99353.72
2023-07-24T19:50:30.593Z,99353.19
2023-07-24T19:52:56.884Z,99363.69
2023-07-24T19:55:23.224Z,99357.25
2023-07-24T19:57:49.526Z,99358.81
2023-07-24T20:00:15.997Z,99368.59
2023-07-24T20:02:42.386Z,99361.63
2023-07-24T20:05:08.824Z,99370.81
2023-07-24T20:07:35.098Z,99373.88
2023-07-24T20:10:01.397Z,99379.78
2023-07-24T20:12:27.742Z,99380.47
2023-07-24T20:14:54.060Z,99385.47
2023-07-24T20:17:20.373Z,99389.41
2023-07-24T20:19:48.209Z,99398.44
2023-07-24T20:22:14.490Z,99403.28
2023-07-24T20:24:40.864Z,99400.66
2023-07-24T20:27:07.257Z,99410.53
2023-07-24T20:29:33.852Z,99415.59
2023-07-24T20:32:00.211Z,99408.56
2023-07-24T20:34:26.508Z,99405.19
2023-07-24T20:36:52.791Z,99411.69
2023-07-24T20:39:19.053Z,99407.31
2023-07-24T20:41:45.954Z,99411.53
2023-07-24T20:44:12.306Z,99420.72
2023-07-24T20:46:38.585Z,99422.50
2023-07-24T20:49:04.912Z,99427.16
2023-07-24T20:51:31.404Z,99421.50
2023-07-24T20:53:57.921Z,99438.03
2023-07-24T20:56:24.233Z,99437.31
2023-07-24T20:58:50.656Z,99442.16
2023-07-24T21:01:17.088Z,99445.88
2023-07-24T21:03:43.408Z,99449.59
2023-07-24T21:06:10.077Z,99445.16
2023-07-24T21:08:36.385Z,99449.59
2023-07-24T21:11:02.657Z,99451.53
2023-07-24T21:13:28.950Z,99461.66
2023-07-24T21:15:55.308Z,99454.59
2023-07-24T21:18:22.131Z,99463.34
2023-07-24T21:20:48.412Z,99469.16
2023-07-24T21:23:15.000Z,99467.31
2023-07-24T21:25:50.974Z,99475.53
2023-07-24T21:28:17.265Z,99481.59
2023-07-24T21:30:43.528Z,99477.63
2023-07-24T21:33:09.843Z,99486.25
2023-07-24T21:35:36.191Z,99488.56
2023-07-24T21:38:02.474Z,99491.94
2023-07-24T21:40:28.789Z,99488.03
2023-07-24T21:42:55.065Z,99500.38
2023-07-24T21:45:21.353Z,99502.19
2023-07-24T21:47:47.684Z,99492.16
2023-07-24T21:50:13.967Z,99495.25
2023-07-24T21:52:42.144Z,99494.78
2023-07-24T21:55:08.608Z,99489.22
2023-07-24T21:57:34.910Z,99499.31
2023-07-24T22:00:01.267Z,99495.88
2023-07-24T22:02:27.660Z,99494.91
2023-07-24T22:04:54.018Z,99495.06
2023-07-24T22:07:20.314Z,99500.53
2023-07-24T22:09:46.595Z,99495.25
2023-07-24T22:12:12.925Z,99504.59
2023-07-24T22:14:39.247Z,99496.03
2023-07-24T22:17:05.738Z,99497.41
2023-07-24T22:19:32.054Z,99508.66
2023-07-24T22:21:58.397Z,99502.50
2023-07-24T22:24:24.747Z,99506.63
2023-07-24T22:26:51.064Z,99510.31
2023-07-24T22:29:17.348Z,99514.84
2023-07-24T22:31:43.637Z,99517.50
2023-07-24T22:34:10.505Z,99510.09
2023-07-24T22:36:36.765Z,99522.03
2023-07-24T22:39:03.060Z,99521.22
2023-07-24T22:41:29.528Z,99518.75
2023-07-24T22:43:56.089Z,99515.56
2023-07-24T22:46:22.503Z,99510.53
2023-07-24T22:49:15.567Z,99507.50
2023-07-24T22:51:41.859Z,99514.00
2023-07-24T22:54:08.151Z,99522.88
2023-07-24T22:56:34.464Z,99525.84
2023-07-24T22:59:03.790Z,99531.97
2023-07-24T23:01:31.496Z,99529.59
2023-07-24T23:03:58.263Z,99525.69
2023-07-24T23:06:24.570Z,99526.56
2023-07-24T23:08:50.885Z,99528.06
2023-07-24T23:11:17.163Z,99531.47
2023-07-24T23:13:43.471Z,99522.03
2023-07-24T23:16:09.812Z,99525.22
2023-07-24T23:18:36.258Z,99526.25
2023-07-24T23:21:02.842Z,99526.84
2023-07-24T23:23:29.175Z,99522.28
2023-07-24T23:25:55.441Z,99522.69
2023-07-24T23:28:21.761Z,99524.03
2023-07-24T23:30:48.045Z,99527.63
2023-07-24T23:33:14.360Z,99540.88
2023-07-24T23:35:40.634Z,99529.38
2023-07-24T23:38:07.002Z,99531.28
2023-07-24T23:40:33.301Z,99533.16
2023-07-24T23:42:59.599Z,99530.34
2023-07-24T23:45:25.896Z,99525.31
2023-07-24T23:47:52.230Z,99528.06
2023-07-24T23:50:18.525Z,99533.41
2023-07-24T23:52:44.817Z,99543.75
2023-07-24T23:55:11.071Z,99543.06
2023-07-24T23:57:37.374Z,99538.06
